Terminal Aerodrome Forecast
Issued by NWS Twin Cities, MN

Current Version | Previous Version | Text Only | Print | Product List | Glossary On
Versions: 1 2 3 4 5 6 7 8 9 10 11 12 13 14 15
000
FTUS43 KMPX 240800 AAA
TAFEAU
TAF AMD
KEAU 240852Z 2409/2506 12013G20KT P6SM BKN012 OVC025
     FM241000 13014G20KT 3SM -RA BR SCT007 OVC015
      TEMPO 2411/2415 2SM RA BR OVC007
     FM241600 15011G16KT 4SM -RA OVC010
     FM242100 23007KT 6SM -RA BR SCT010 BKN020
     FM250200 27007KT P6SM SCT015 BKN030=

USA.gov is the U.S. government's official web portal to all federal, state and local government web resources and services.